Terminal Aerodrome Forecast
Issued by NWS Hastings, NE

Home | Current Version | Previous Version | Text Only | Print | Product List | Glossary On
Versions: 1 2 3 4 5 6 7 8 9 10 11 12 13 14 15 16 17 18 19 20 21 22 23 24 25 26 27 28 29 30 31 32
034
FTUS43 KGID 202345
TAFGRI
TAF
KGRI 202345Z 2100/2124 13004KT 1/4SM FG OVC003
     FM210200 17004KT 1/4SM FG VCSH OVC002
     FM210600 24005KT 1/2SM FG OVC003
     FM210900 26005KT 1SM BR OVC010
     FM211200 27006KT 4SM BR OVC015
     FM211500 26005KT P6SM SCT015 BKN120=

USA.gov is the U.S. government's official web portal to all federal, state and local government web resources and services.